Time,TemperatureF,DewpointF,PressureIn,WindDirection,WindDirectionDegrees,WindSpeedMPH,WindSpeedGustMPH,Humidity,HourlyPrecipIn,Conditions,Clouds,dailyrainin,SolarRadiationWatts/m^2,SoftwareType,DateUTC
2014-10-21 00:04:00,48.4,45.9,29.89,West,263,2.0,3.0,91,0.00,,,0.03,0.0,meteobridge,2014-10-21 04:04:00,
2014-10-21 00:09:00,48.4,45.9,29.89,NW,308,4.0,5.0,91,0.00,,,0.03,0.0,meteobridge,2014-10-21 04:09:00,
2014-10-21 00:14:00,48.4,45.9,29.89,WNW,303,2.0,3.0,91,0.00,,,0.03,0.0,meteobridge,2014-10-21 04:14:00,
2014-10-21 00:19:00,48.2,45.7,29.89,NNW,334,2.9,5.0,91,0.00,,,0.03,0.0,meteobridge,2014-10-21 04:19:00,
2014-10-21 00:24:00,48.0,45.5,29.88,WNW,290,0.0,9.0,91,0.00,,,0.03,0.0,meteobridge,2014-10-21 04:24:00,
2014-10-21 00:29:00,47.8,45.0,29.89,WNW,288,6.0,6.0,90,0.00,,,0.03,0.0,meteobridge,2014-10-21 04:29:00,
2014-10-21 00:34:00,47.8,45.0,29.89,West,275,0.0,4.0,90,0.00,,,0.03,0.0,meteobridge,2014-10-21 04:34:00,
2014-10-21 00:39:00,47.8,45.0,29.88,WNW,294,2.9,5.0,90,0.00,,,0.03,0.0,meteobridge,2014-10-21 04:39:00,
2014-10-21 00:44:00,47.7,45.1,29.88,West,267,2.0,5.0,91,0.00,,,0.03,0.0,meteobridge,2014-10-21 04:44:00,
2014-10-21 00:49:00,47.7,45.0,29.89,West,265,4.9,7.0,90,0.00,,,0.03,0.0,meteobridge,2014-10-21 04:49:00,
2014-10-21 00:54:00,47.5,44.8,29.89,NW,309,2.0,7.0,90,0.00,,,0.03,0.0,meteobridge,2014-10-21 04:54:00,
2014-10-21 00:59:00,47.5,44.8,29.89,West,269,2.0,7.0,90,0.00,,,0.03,0.0,meteobridge,2014-10-21 04:59:00,
2014-10-21 01:04:00,47.5,44.8,29.89,West,261,6.0,6.0,90,0.00,,,0.03,0.0,meteobridge,2014-10-21 05:04:00,
2014-10-21 01:09:00,47.5,44.8,29.89,West,271,2.0,6.0,90,0.00,,,0.03,0.0,meteobridge,2014-10-21 05:09:00,
2014-10-21 01:14:00,47.5,44.8,29.89,NW,304,4.0,7.0,90,0.00,,,0.03,0.0,meteobridge,2014-10-21 05:14:00,
2014-10-21 01:19:00,47.3,44.6,29.89,West,276,0.0,5.0,90,0.00,,,0.03,0.0,meteobridge,2014-10-21 05:19:00,
2014-10-21 01:24:00,47.3,44.6,29.89,West,281,6.9,8.0,90,0.00,,,0.03,0.0,meteobridge,2014-10-21 05:24:00,
2014-10-21 01:29:00,47.1,44.4,29.89,WSW,254,4.9,10.0,90,0.00,,,0.03,0.0,meteobridge,2014-10-21 05:29:00,
2014-10-21 01:34:00,47.1,44.4,29.89,WNW,292,2.9,4.0,90,0.00,,,0.03,0.0,meteobridge,2014-10-21 05:34:00,
2014-10-21 01:39:00,47.1,44.4,29.89,West,264,2.0,6.0,90,0.00,,,0.03,0.0,meteobridge,2014-10-21 05:39:00,
2014-10-21 01:44:00,47.1,44.4,29.89,WNW,303,2.9,3.0,90,0.00,,,0.03,0.0,meteobridge,2014-10-21 05:44:00,
2014-10-21 01:49:00,47.1,44.4,29.89,WNW,290,2.9,5.0,90,0.00,,,0.03,0.0,meteobridge,2014-10-21 05:49:00,
2014-10-21 01:55:00,47.1,44.4,29.89,WNW,286,2.0,4.0,90,0.00,,,0.03,0.0,meteobridge,2014-10-21 05:55:00,
2014-10-21 02:00:00,47.1,44.4,29.90,West,260,4.0,5.0,90,0.00,,,0.03,0.0,meteobridge,2014-10-21 06:00:00,
2014-10-21 02:05:00,46.9,43.9,29.89,WNW,292,2.9,7.0,89,0.00,,,0.03,0.0,meteobridge,2014-10-21 06:05:00,
2014-10-21 02:10:00,46.9,43.9,29.89,NW,311,0.9,6.0,89,0.00,,,0.03,0.0,meteobridge,2014-10-21 06:10:00,
2014-10-21 02:15:00,46.9,43.9,29.90,West,278,4.9,7.0,89,0.00,,,0.03,0.0,meteobridge,2014-10-21 06:15:00,
2014-10-21 02:20:00,47.1,44.1,29.90,NW,309,2.0,8.0,89,0.00,,,0.03,0.0,meteobridge,2014-10-21 06:20:00,
2014-10-21 02:25:00,47.1,44.1,29.90,WNW,287,4.9,5.0,89,0.00,,,0.03,0.0,meteobridge,2014-10-21 06:25:00,
2014-10-21 02:30:00,47.1,44.1,29.90,WNW,286,0.9,6.0,89,0.00,,,0.03,0.0,meteobridge,2014-10-21 06:30:00,
2014-10-21 02:35:00,47.1,44.1,29.90,West,273,4.0,6.0,89,0.00,,,0.03,0.0,meteobridge,2014-10-21 06:35:00,
2014-10-21 02:40:00,47.1,44.1,29.90,WNW,294,4.0,5.0,89,0.00,,,0.03,0.0,meteobridge,2014-10-21 06:40:00,
2014-10-21 02:45:00,47.1,44.1,29.91,WNW,283,6.0,7.0,89,0.00,,,0.03,0.0,meteobridge,2014-10-21 06:45:00,
2014-10-21 02:50:00,47.1,44.1,29.90,West,271,0.0,3.0,89,0.00,,,0.03,0.0,meteobridge,2014-10-21 06:50:00,
2014-10-21 02:55:00,47.1,43.7,29.91,WNW,290,2.0,7.0,88,0.00,,,0.03,0.0,meteobridge,2014-10-21 06:55:00,
2014-10-21 03:00:00,47.1,43.7,29.90,West,269,2.9,6.0,88,0.00,,,0.03,0.0,meteobridge,2014-10-21 07:00:00,
2014-10-21 03:05:00,47.1,43.7,29.91,WSW,258,2.0,5.0,88,0.00,,,0.03,0.0,meteobridge,2014-10-21 07:05:00,
2014-10-21 03:10:00,47.1,43.7,29.91,West,278,0.0,5.0,88,0.00,,,0.03,0.0,meteobridge,2014-10-21 07:10:00,
2014-10-21 03:15:00,47.1,43.7,29.91,West,271,4.0,5.0,88,0.00,,,0.03,0.0,meteobridge,2014-10-21 07:15:00,
2014-10-21 03:20:00,47.1,43.7,29.91,West,275,0.9,5.0,88,0.00,,,0.03,0.0,meteobridge,2014-10-21 07:20:00,
2014-10-21 03:25:00,47.1,43.7,29.91,West,275,2.0,5.0,88,0.00,,,0.03,0.0,meteobridge,2014-10-21 07:25:00,
2014-10-21 03:30:00,47.1,44.1,29.91,West,275,2.9,4.0,89,0.00,,,0.03,0.0,meteobridge,2014-10-21 07:30:00,
2014-10-21 03:35:00,47.1,44.1,29.91,West,267,2.9,5.0,89,0.00,,,0.03,0.0,meteobridge,2014-10-21 07:35:00,
2014-10-21 03:40:00,47.1,44.1,29.91,NW,315,2.0,5.0,89,0.00,,,0.03,0.0,meteobridge,2014-10-21 07:40:00,
2014-10-21 03:45:00,47.1,44.1,29.91,NNW,329,2.9,5.0,89,0.00,,,0.03,0.0,meteobridge,2014-10-21 07:45:00,
2014-10-21 03:50:00,47.1,44.1,29.91,West,276,2.0,7.0,89,0.00,,,0.03,0.0,meteobridge,2014-10-21 07:50:00,
2014-10-21 03:55:00,47.1,43.7,29.91,West,276,0.9,3.0,88,0.00,,,0.03,0.0,meteobridge,2014-10-21 07:55:00,
2014-10-21 04:00:00,47.1,43.7,29.91,NW,321,2.9,6.0,88,0.00,,,0.03,0.0,meteobridge,2014-10-21 08:00:00,
2014-10-21 04:05:00,47.1,43.7,29.91,West,278,0.9,4.0,88,0.00,,,0.03,0.0,meteobridge,2014-10-21 08:05:00,
2014-10-21 04:10:00,47.1,43.7,29.91,West,266,4.9,9.0,88,0.00,,,0.03,0.0,meteobridge,2014-10-21 08:10:00,
2014-10-21 04:15:00,47.1,43.7,29.91,NW,325,2.9,6.0,88,0.00,,,0.03,0.0,meteobridge,2014-10-21 08:15:00,
2014-10-21 04:21:00,47.1,43.7,29.91,WNW,297,2.0,3.0,88,0.00,,,0.03,0.0,meteobridge,2014-10-21 08:21:00,
2014-10-21 04:26:00,47.1,43.7,29.91,West,272,2.9,6.0,88,0.00,,,0.03,0.0,meteobridge,2014-10-21 08:26:00,
2014-10-21 04:31:00,46.9,43.5,29.91,WNW,286,2.9,5.0,88,0.00,,,0.03,0.0,meteobridge,2014-10-21 08:31:00,
2014-10-21 04:36:00,46.9,43.5,29.91,West,275,2.0,5.0,88,0.00,,,0.03,0.0,meteobridge,2014-10-21 08:36:00,
2014-10-21 04:41:00,46.9,43.5,29.91,NW,321,2.9,6.0,88,0.00,,,0.03,0.0,meteobridge,2014-10-21 08:41:00,
2014-10-21 04:46:00,46.9,43.5,29.91,West,265,4.0,6.0,88,0.00,,,0.03,0.0,meteobridge,2014-10-21 08:46:00,
2014-10-21 04:51:00,46.9,43.5,29.91,West,275,2.9,5.0,88,0.00,,,0.03,0.0,meteobridge,2014-10-21 08:51:00,
2014-10-21 04:56:00,46.9,43.5,29.91,WNW,303,6.0,7.0,88,0.00,,,0.03,0.0,meteobridge,2014-10-21 08:56:00,
2014-10-21 05:01:00,46.9,43.5,29.91,WNW,285,6.0,6.0,88,0.00,,,0.03,0.0,meteobridge,2014-10-21 09:01:00,
2014-10-21 05:06:00,46.9,43.5,29.92,West,271,2.9,4.0,88,0.00,,,0.03,0.0,meteobridge,2014-10-21 09:06:00,
2014-10-21 05:11:00,46.9,43.5,29.92,West,262,2.0,6.0,88,0.00,,,0.03,0.0,meteobridge,2014-10-21 09:11:00,
2014-10-21 05:16:00,46.9,43.5,29.92,West,268,0.0,5.0,88,0.00,,,0.03,0.0,meteobridge,2014-10-21 09:16:00,
2014-10-21 05:21:00,46.9,43.5,29.92,WNW,287,0.0,5.0,88,0.00,,,0.03,0.0,meteobridge,2014-10-21 09:21:00,
2014-10-21 05:26:00,46.9,43.5,29.92,WNW,285,0.0,4.0,88,0.00,,,0.03,0.0,meteobridge,2014-10-21 09:26:00,
2014-10-21 05:31:00,46.8,43.3,29.92,WNW,289,4.0,6.0,88,0.00,,,0.03,0.0,meteobridge,2014-10-21 09:31:00,
2014-10-21 05:36:00,46.8,43.7,29.92,West,277,2.0,6.0,89,0.00,,,0.03,0.0,meteobridge,2014-10-21 09:36:00,
2014-10-21 05:41:00,46.8,43.7,29.92,WNW,288,2.0,6.0,89,0.00,,,0.03,0.0,meteobridge,2014-10-21 09:41:00,
2014-10-21 05:46:00,46.8,43.7,29.93,West,271,2.0,6.0,89,0.00,,,0.03,0.0,meteobridge,2014-10-21 09:46:00,
2014-10-21 05:51:00,46.8,43.7,29.93,West,275,6.0,8.0,89,0.00,,,0.03,0.0,meteobridge,2014-10-21 09:51:00,
2014-10-21 05:56:00,46.8,43.7,29.93,WNW,286,4.0,6.0,89,0.00,,,0.03,0.0,meteobridge,2014-10-21 09:56:00,
2014-10-21 06:01:00,46.8,43.7,29.93,NW,304,2.9,4.0,89,0.00,,,0.03,0.0,meteobridge,2014-10-21 10:01:00,
2014-10-21 06:06:00,46.8,43.7,29.93,West,273,4.9,6.0,89,0.01,,,0.04,0.0,meteobridge,2014-10-21 10:06:00,
2014-10-21 06:11:00,46.6,43.5,29.93,WNW,286,2.9,7.0,89,0.01,,,0.04,0.0,meteobridge,2014-10-21 10:11:00,
2014-10-21 06:16:00,46.6,43.5,29.93,WNW,301,4.0,5.0,89,0.01,,,0.04,0.0,meteobridge,2014-10-21 10:16:00,
2014-10-21 06:21:00,46.6,43.5,29.94,West,263,4.0,5.0,89,0.01,,,0.04,0.0,meteobridge,2014-10-21 10:21:00,
2014-10-21 06:26:00,46.6,43.5,29.94,West,275,4.0,5.0,89,0.01,,,0.04,0.0,meteobridge,2014-10-21 10:26:00,
2014-10-21 06:31:00,46.6,43.5,29.94,WSW,252,4.9,9.0,89,0.01,,,0.04,0.0,meteobridge,2014-10-21 10:31:00,
2014-10-21 06:37:00,46.6,43.5,29.94,WNW,300,4.0,6.0,89,0.01,,,0.04,0.0,meteobridge,2014-10-21 10:37:00,
2014-10-21 06:42:00,46.6,43.5,29.95,West,275,4.0,7.0,89,0.01,,,0.04,0.0,meteobridge,2014-10-21 10:42:00,
2014-10-21 06:46:00,46.6,43.5,29.95,West,263,2.9,9.0,89,0.01,,,0.04,0.0,meteobridge,2014-10-21 10:46:00,
2014-10-21 06:52:00,46.6,43.9,29.95,West,265,6.0,6.0,90,0.01,,,0.04,0.0,meteobridge,2014-10-21 10:52:00,
2014-10-21 06:57:00,46.4,43.7,29.95,WNW,302,0.9,5.0,90,0.01,,,0.04,0.0,meteobridge,2014-10-21 10:57:00,
2014-10-21 07:02:00,46.2,43.5,29.95,West,279,4.0,6.0,90,0.00,,,0.04,0.0,meteobridge,2014-10-21 11:02:00,
2014-10-21 07:07:00,46.2,43.7,29.96,NW,304,4.9,9.0,91,0.00,,,0.04,0.0,meteobridge,2014-10-21 11:07:00,
2014-10-21 07:12:00,46.0,43.5,29.96,WNW,286,2.0,5.0,91,0.00,,,0.04,0.0,meteobridge,2014-10-21 11:12:00,
2014-10-21 07:17:00,46.0,43.5,29.96,WNW,293,4.9,5.0,91,0.00,,,0.04,0.0,meteobridge,2014-10-21 11:17:00,
2014-10-21 07:22:00,46.0,43.9,29.96,West,280,0.9,7.0,92,0.00,,,0.04,0.0,meteobridge,2014-10-21 11:22:00,
2014-10-21 07:27:00,46.0,43.9,29.96,WNW,302,2.9,7.0,92,0.00,,,0.04,0.0,meteobridge,2014-10-21 11:27:00,
2014-10-21 07:32:00,45.9,43.7,29.96,WNW,299,2.0,10.0,92,0.00,,,0.04,0.0,meteobridge,2014-10-21 11:32:00,
2014-10-21 07:37:00,45.9,43.9,29.96,NW,315,2.0,12.0,93,0.00,,,0.04,0.0,meteobridge,2014-10-21 11:37:00,
2014-10-21 07:42:00,45.9,43.9,29.96,West,269,6.9,8.0,93,0.00,,,0.04,0.0,meteobridge,2014-10-21 11:42:00,
2014-10-21 07:47:00,45.9,43.9,29.96,WSW,254,6.0,7.0,93,0.00,,,0.04,0.0,meteobridge,2014-10-21 11:47:00,
2014-10-21 07:52:00,45.7,43.7,29.97,NW,311,4.0,8.0,93,0.00,,,0.04,0.0,meteobridge,2014-10-21 11:52:00,
2014-10-21 07:57:00,45.7,44.1,29.97,WNW,287,0.9,8.0,94,0.00,,,0.04,0.0,meteobridge,2014-10-21 11:57:00,
2014-10-21 08:11:00,45.7,44.1,29.97,WNW,286,2.9,4.0,94,0.00,,,0.04,5.0,meteobridge,2014-10-21 12:11:00,
2014-10-21 08:16:00,45.7,44.1,29.98,WNW,299,2.9,5.0,94,0.00,,,0.04,7.0,meteobridge,2014-10-21 12:16:00,
2014-10-21 08:21:00,45.7,44.1,29.98,NW,305,6.0,6.0,94,0.00,,,0.04,11.0,meteobridge,2014-10-21 12:21:00,
2014-10-21 08:26:00,45.7,44.1,29.98,WNW,288,2.9,5.0,94,0.00,,,0.04,14.0,meteobridge,2014-10-21 12:26:00,
2014-10-21 08:31:00,45.7,44.1,29.98,WNW,284,0.9,6.0,94,0.00,,,0.04,18.0,meteobridge,2014-10-21 12:31:00,
2014-10-21 08:36:00,45.7,44.1,29.98,WNW,288,2.9,5.0,94,0.00,,,0.04,21.0,meteobridge,2014-10-21 12:36:00,
2014-10-21 08:41:00,45.7,44.1,29.98,West,271,2.9,4.0,94,0.00,,,0.04,18.0,meteobridge,2014-10-21 12:41:00,
2014-10-21 08:46:00,45.7,44.1,29.98,WNW,285,2.0,4.0,94,0.00,,,0.04,12.0,meteobridge,2014-10-21 12:46:00,
2014-10-21 08:51:00,45.9,44.2,29.99,WNW,293,0.9,7.0,94,0.00,,,0.04,12.0,meteobridge,2014-10-21 12:51:00,
2014-10-21 08:56:00,45.9,44.2,29.99,WNW,297,4.0,4.0,94,0.00,,,0.04,12.0,meteobridge,2014-10-21 12:56:00,
2014-10-21 09:01:00,45.9,44.2,29.99,NNW,331,2.0,7.0,94,0.00,,,0.04,11.0,meteobridge,2014-10-21 13:01:00,
2014-10-21 09:06:00,45.9,44.2,30.00,West,279,4.9,8.0,94,0.00,,,0.04,11.0,meteobridge,2014-10-21 13:06:00,
2014-10-21 09:11:00,45.9,44.2,30.00,NNW,338,4.0,9.0,94,0.00,,,0.04,14.0,meteobridge,2014-10-21 13:11:00,
2014-10-21 09:16:00,45.9,43.9,30.00,NNW,336,4.0,9.0,93,0.00,,,0.04,21.0,meteobridge,2014-10-21 13:16:00,
2014-10-21 09:21:00,45.9,43.9,30.00,NNW,346,2.9,9.0,93,0.00,,,0.04,51.0,meteobridge,2014-10-21 13:21:00,
2014-10-21 09:26:00,45.9,43.9,30.00,NW,320,2.9,7.0,93,0.00,,,0.04,56.0,meteobridge,2014-10-21 13:26:00,
2014-10-21 09:31:00,45.9,43.9,30.00,NW,317,2.9,8.0,93,0.00,,,0.04,54.0,meteobridge,2014-10-21 13:31:00,
2014-10-21 09:36:00,45.9,43.9,30.01,NNW,341,0.9,8.0,93,0.00,,,0.04,49.0,meteobridge,2014-10-21 13:36:00,
2014-10-21 09:41:00,45.7,43.5,30.01,NE,51,2.9,13.0,92,0.00,,,0.04,49.0,meteobridge,2014-10-21 13:41:00,
2014-10-21 09:46:00,45.7,43.5,30.01,NNW,331,2.0,5.0,92,0.00,,,0.04,46.0,meteobridge,2014-10-21 13:46:00,
2014-10-21 09:51:00,45.7,43.5,30.01,North,350,0.0,7.0,92,0.00,,,0.04,46.0,meteobridge,2014-10-21 13:51:00,
2014-10-21 09:56:00,45.7,43.5,30.02,NW,310,6.0,9.0,92,0.00,,,0.04,39.0,meteobridge,2014-10-21 13:56:00,
2014-10-21 10:01:00,45.5,43.3,30.02,NNW,348,6.0,9.0,92,0.00,,,0.04,35.0,meteobridge,2014-10-21 14:01:00,
2014-10-21 10:06:00,45.3,43.3,30.02,NNE,32,4.0,8.0,93,0.00,,,0.04,69.0,meteobridge,2014-10-21 14:06:00,
2014-10-21 10:11:00,45.3,43.3,30.02,NNE,26,0.9,6.0,93,0.00,,,0.04,142.0,meteobridge,2014-10-21 14:11:00,
2014-10-21 10:17:00,45.7,43.7,30.02,North,355,8.1,10.0,93,0.00,,,0.04,128.0,meteobridge,2014-10-21 14:17:00,
2014-10-21 10:22:00,45.7,43.5,30.03,NNW,343,6.9,12.0,92,0.00,,,0.04,144.0,meteobridge,2014-10-21 14:22:00,
2014-10-21 10:27:00,45.7,43.5,30.03,NW,313,6.9,12.0,92,0.00,,,0.04,130.0,meteobridge,2014-10-21 14:27:00,
2014-10-21 10:32:00,45.7,43.2,30.03,North,5,4.0,9.0,91,0.00,,,0.04,137.0,meteobridge,2014-10-21 14:32:00,
2014-10-21 10:37:00,45.9,43.3,30.03,NNE,28,4.9,8.0,91,0.00,,,0.04,128.0,meteobridge,2014-10-21 14:37:00,
2014-10-21 10:42:00,45.9,43.3,30.03,NW,313,2.0,6.0,91,0.00,,,0.04,98.0,meteobridge,2014-10-21 14:42:00,
2014-10-21 10:47:00,46.0,43.3,30.03,WSW,254,4.0,6.0,90,0.00,,,0.04,84.0,meteobridge,2014-10-21 14:47:00,
2014-10-21 10:52:00,45.9,43.2,30.04,NNW,340,4.0,11.0,90,0.00,,,0.04,51.0,meteobridge,2014-10-21 14:52:00,
2014-10-21 10:57:00,45.7,42.6,30.04,North,355,2.0,10.0,89,0.00,,,0.04,62.0,meteobridge,2014-10-21 14:57:00,
2014-10-21 11:02:00,45.7,42.6,30.04,NW,312,4.9,10.0,89,0.00,,,0.04,77.0,meteobridge,2014-10-21 15:02:00,
2014-10-21 11:07:00,45.7,42.6,30.04,NW,309,11.0,11.0,89,0.00,,,0.04,56.0,meteobridge,2014-10-21 15:07:00,
2014-10-21 11:12:00,45.7,42.6,30.04,North,5,0.9,5.0,89,0.00,,,0.04,37.0,meteobridge,2014-10-21 15:12:00,
2014-10-21 11:17:00,45.5,42.4,30.04,West,266,2.0,8.0,89,0.00,,,0.04,28.0,meteobridge,2014-10-21 15:17:00,
2014-10-21 11:22:00,45.3,42.6,30.04,NNW,347,4.0,11.0,90,0.00,,,0.04,33.0,meteobridge,2014-10-21 15:22:00,
2014-10-21 11:27:00,45.1,42.4,30.04,NW,308,2.0,6.0,90,0.00,,,0.04,32.0,meteobridge,2014-10-21 15:27:00,
2014-10-21 11:32:00,45.1,42.4,30.04,NW,304,4.0,5.0,90,0.00,,,0.04,37.0,meteobridge,2014-10-21 15:32:00,
2014-10-21 11:37:00,45.1,42.4,30.04,NNW,338,4.9,8.0,90,0.00,,,0.04,33.0,meteobridge,2014-10-21 15:37:00,
2014-10-21 11:42:00,45.0,41.9,30.05,North,351,0.9,9.0,89,0.00,,,0.04,62.0,meteobridge,2014-10-21 15:42:00,
2014-10-21 11:47:00,45.1,42.4,30.05,WNW,301,2.9,8.0,90,0.00,,,0.04,69.0,meteobridge,2014-10-21 15:47:00,
2014-10-21 11:52:00,45.1,42.1,30.05,NNW,342,2.9,5.0,89,0.00,,,0.04,90.0,meteobridge,2014-10-21 15:52:00,
2014-10-21 11:57:00,45.3,42.3,30.05,NNE,29,2.0,7.0,89,0.00,,,0.04,74.0,meteobridge,2014-10-21 15:57:00,
2014-10-21 12:02:00,45.3,42.3,30.06,North,0,2.9,7.0,89,0.00,,,0.04,67.0,meteobridge,2014-10-21 16:02:00,
2014-10-21 12:07:00,45.5,42.1,30.05,NW,312,4.9,10.0,88,0.00,,,0.04,79.0,meteobridge,2014-10-21 16:07:00,
2014-10-21 12:12:00,45.5,41.9,30.05,WNW,302,4.9,12.0,87,0.00,,,0.04,86.0,meteobridge,2014-10-21 16:12:00,
2014-10-21 12:17:00,45.5,41.5,30.06,NNW,328,6.0,8.0,86,0.00,,,0.04,84.0,meteobridge,2014-10-21 16:17:00,
2014-10-21 12:22:00,45.5,41.0,30.06,NNW,333,8.1,12.0,84,0.00,,,0.04,69.0,meteobridge,2014-10-21 16:22:00,
2014-10-21 12:27:00,45.5,41.0,30.06,NNE,22,6.0,13.0,84,0.00,,,0.04,53.0,meteobridge,2014-10-21 16:27:00,
2014-10-21 12:32:00,45.5,41.0,30.06,NW,321,4.0,14.0,84,0.00,,,0.04,60.0,meteobridge,2014-10-21 16:32:00,
2014-10-21 12:37:00,45.5,41.0,30.06,NW,322,6.0,9.0,84,0.00,,,0.04,46.0,meteobridge,2014-10-21 16:37:00,
2014-10-21 12:42:00,45.3,40.5,30.06,NW,311,11.0,14.0,83,0.00,,,0.04,44.0,meteobridge,2014-10-21 16:42:00,
2014-10-21 12:48:00,45.3,40.8,30.06,WSW,254,0.9,12.0,84,0.00,,,0.04,62.0,meteobridge,2014-10-21 16:48:00,
2014-10-21 12:53:00,45.3,40.8,30.07,NE,38,2.0,8.0,84,0.00,,,0.04,42.0,meteobridge,2014-10-21 16:53:00,
2014-10-21 12:58:00,45.3,40.8,30.07,NNE,28,4.9,10.0,84,0.00,,,0.04,39.0,meteobridge,2014-10-21 16:58:00,
2014-10-21 13:03:00,45.3,40.5,30.07,WNW,282,2.0,7.0,83,0.00,,,0.04,37.0,meteobridge,2014-10-21 17:03:00,
2014-10-21 13:08:00,45.1,40.6,30.07,WNW,286,2.9,7.0,84,0.00,,,0.04,46.0,meteobridge,2014-10-21 17:08:00,
2014-10-21 13:13:00,45.1,40.3,30.07,NNW,344,0.9,9.0,83,0.00,,,0.04,58.0,meteobridge,2014-10-21 17:13:00,
2014-10-21 13:18:00,45.1,39.9,30.07,NE,46,4.0,8.0,82,0.00,,,0.04,56.0,meteobridge,2014-10-21 17:18:00,
2014-10-21 13:23:00,45.1,39.9,30.07,North,355,2.9,7.0,82,0.00,,,0.04,44.0,meteobridge,2014-10-21 17:23:00,
2014-10-21 13:28:00,45.3,40.5,30.07,West,266,2.0,6.0,83,0.00,,,0.04,42.0,meteobridge,2014-10-21 17:28:00,
2014-10-21 13:33:00,45.3,40.5,30.07,North,0,4.0,6.0,83,0.00,,,0.04,42.0,meteobridge,2014-10-21 17:33:00,
2014-10-21 13:38:00,45.3,40.5,30.07,NNW,333,6.9,12.0,83,0.00,,,0.04,51.0,meteobridge,2014-10-21 17:38:00,
2014-10-21 13:43:00,45.1,39.9,30.07,WNW,302,6.0,13.0,82,0.00,,,0.04,53.0,meteobridge,2014-10-21 17:43:00,
2014-10-21 13:48:00,45.1,39.9,30.07,WNW,297,0.9,8.0,82,0.00,,,0.04,63.0,meteobridge,2014-10-21 17:48:00,
2014-10-21 13:53:00,45.1,39.9,30.08,North,355,2.0,9.0,82,0.00,,,0.04,51.0,meteobridge,2014-10-21 17:53:00,
2014-10-21 13:58:00,45.1,39.9,30.08,NNE,20,10.1,15.0,82,0.00,,,0.04,47.0,meteobridge,2014-10-21 17:58:00,
2014-10-21 14:03:00,45.1,39.9,30.08,SSE,148,2.9,13.0,82,0.00,,,0.04,40.0,meteobridge,2014-10-21 18:03:00,
2014-10-21 14:08:00,45.1,39.9,30.08,West,281,4.0,5.0,82,0.00,,,0.04,49.0,meteobridge,2014-10-21 18:08:00,
2014-10-21 14:13:00,45.1,39.9,30.08,NW,313,11.0,11.0,82,0.00,,,0.04,49.0,meteobridge,2014-10-21 18:13:00,
2014-10-21 14:18:00,45.1,39.7,30.08,NNW,332,6.9,12.0,81,0.00,,,0.04,46.0,meteobridge,2014-10-21 18:18:00,
2014-10-21 14:23:00,45.1,39.7,30.08,North,5,2.0,6.0,81,0.00,,,0.04,53.0,meteobridge,2014-10-21 18:23:00,
2014-10-21 14:28:00,45.1,39.7,30.09,NW,321,0.9,6.0,81,0.00,,,0.04,63.0,meteobridge,2014-10-21 18:28:00,
2014-10-21 14:33:00,45.1,39.7,30.09,NW,325,8.1,11.0,81,0.00,,,0.04,91.0,meteobridge,2014-10-21 18:33:00,
2014-10-21 14:38:00,45.1,39.7,30.09,NW,314,11.0,15.0,81,0.00,,,0.04,97.0,meteobridge,2014-10-21 18:38:00,
2014-10-21 14:44:00,45.1,39.7,30.09,NW,325,4.0,17.0,81,0.00,,,0.04,84.0,meteobridge,2014-10-21 18:44:00,
2014-10-21 14:49:00,45.1,39.7,30.09,NNE,28,4.0,11.0,81,0.00,,,0.04,76.0,meteobridge,2014-10-21 18:49:00,
2014-10-21 14:54:00,45.1,39.7,30.09,NNE,30,0.9,9.0,81,0.00,,,0.04,53.0,meteobridge,2014-10-21 18:54:00,
2014-10-21 14:59:00,45.1,39.9,30.09,North,355,0.9,6.0,82,0.00,,,0.04,33.0,meteobridge,2014-10-21 18:59:00,
2014-10-21 15:04:00,45.0,39.6,30.10,West,267,8.1,12.0,81,0.00,,,0.04,69.0,meteobridge,2014-10-21 19:04:00,
2014-10-21 15:09:00,45.0,39.6,30.09,NNW,339,4.0,11.0,81,0.00,,,0.04,39.0,meteobridge,2014-10-21 19:09:00,
2014-10-21 15:14:00,44.8,39.4,30.10,NW,325,4.9,6.0,81,0.00,,,0.04,28.0,meteobridge,2014-10-21 19:14:00,
2014-10-21 15:19:00,44.8,39.4,30.10,WNW,284,8.1,11.0,81,0.00,,,0.04,28.0,meteobridge,2014-10-21 19:19:00,
2014-10-21 15:24:00,44.6,39.2,30.10,NW,317,2.0,14.0,81,0.00,,,0.04,49.0,meteobridge,2014-10-21 19:24:00,
2014-10-21 15:29:00,44.4,39.0,30.10,WSW,257,0.0,8.0,81,0.00,,,0.04,100.0,meteobridge,2014-10-21 19:29:00,
2014-10-21 15:34:00,44.6,39.4,30.10,NW,315,8.9,12.0,82,0.00,,,0.04,105.0,meteobridge,2014-10-21 19:34:00,
2014-10-21 15:39:00,44.8,39.4,30.10,NW,319,4.9,12.0,81,0.00,,,0.04,86.0,meteobridge,2014-10-21 19:39:00,
2014-10-21 15:44:00,44.6,39.2,30.10,West,275,4.0,10.0,81,0.00,,,0.04,67.0,meteobridge,2014-10-21 19:44:00,
2014-10-21 15:49:00,44.4,39.0,30.10,West,273,4.9,11.0,81,0.00,,,0.04,54.0,meteobridge,2014-10-21 19:49:00,
2014-10-21 15:54:00,44.4,39.0,30.11,WNW,289,6.0,11.0,81,0.00,,,0.04,53.0,meteobridge,2014-10-21 19:54:00,
2014-10-21 15:59:00,44.4,39.0,30.11,WNW,301,8.1,9.0,81,0.00,,,0.04,40.0,meteobridge,2014-10-21 19:59:00,
2014-10-21 16:04:00,44.4,39.0,30.11,NNW,342,4.9,12.0,81,0.00,,,0.04,33.0,meteobridge,2014-10-21 20:04:00,
2014-10-21 16:10:00,44.4,39.0,30.11,West,263,10.1,11.0,81,0.00,,,0.04,51.0,meteobridge,2014-10-21 20:10:00,
2014-10-21 16:15:00,44.4,39.0,30.11,NNW,333,4.0,10.0,81,0.00,,,0.04,39.0,meteobridge,2014-10-21 20:15:00,
2014-10-21 16:20:00,44.2,38.8,30.11,North,5,4.0,12.0,81,0.00,,,0.04,35.0,meteobridge,2014-10-21 20:20:00,
2014-10-21 16:25:00,44.2,38.8,30.11,NW,306,2.0,8.0,81,0.00,,,0.04,32.0,meteobridge,2014-10-21 20:25:00,
2014-10-21 16:30:00,44.2,38.8,30.11,North,355,8.1,9.0,81,0.00,,,0.04,26.0,meteobridge,2014-10-21 20:30:00,
2014-10-21 16:35:00,44.2,39.0,30.12,NNW,329,11.0,11.0,82,0.00,,,0.04,32.0,meteobridge,2014-10-21 20:35:00,
2014-10-21 16:40:00,44.1,38.7,30.12,West,266,4.9,9.0,81,0.00,,,0.04,23.0,meteobridge,2014-10-21 20:40:00,
2014-10-21 16:45:00,44.1,38.8,30.12,WNW,300,4.9,5.0,82,0.00,,,0.04,26.0,meteobridge,2014-10-21 20:45:00,
2014-10-21 16:50:00,44.1,38.8,30.12,WNW,285,6.0,14.0,82,0.00,,,0.04,65.0,meteobridge,2014-10-21 20:50:00,
2014-10-21 16:55:00,44.1,38.7,30.12,WNW,300,8.9,12.0,81,0.00,,,0.04,128.0,meteobridge,2014-10-21 20:55:00,
2014-10-21 17:00:00,44.2,38.8,30.12,NNW,336,4.9,11.0,81,0.00,,,0.04,65.0,meteobridge,2014-10-21 21:00:00,
2014-10-21 17:05:00,44.4,39.0,30.13,NNW,347,0.9,8.0,81,0.00,,,0.04,44.0,meteobridge,2014-10-21 21:05:00,
2014-10-21 17:10:00,44.4,38.7,30.13,North,9,4.0,7.0,80,0.00,,,0.04,40.0,meteobridge,2014-10-21 21:10:00,
2014-10-21 17:15:00,44.4,38.7,30.13,WNW,302,2.0,5.0,80,0.00,,,0.04,23.0,meteobridge,2014-10-21 21:15:00,
2014-10-21 17:20:00,44.2,38.8,30.14,WNW,287,4.0,8.0,81,0.00,,,0.04,18.0,meteobridge,2014-10-21 21:20:00,
2014-10-21 17:25:00,44.2,38.8,30.14,NNW,346,6.9,8.0,81,0.00,,,0.04,18.0,meteobridge,2014-10-21 21:25:00,
2014-10-21 17:30:00,44.1,38.7,30.14,NNW,338,6.0,14.0,81,0.00,,,0.04,16.0,meteobridge,2014-10-21 21:30:00,
2014-10-21 17:35:00,43.9,38.5,30.14,West,277,8.9,11.0,81,0.00,,,0.04,14.0,meteobridge,2014-10-21 21:35:00,
2014-10-21 17:40:00,43.9,38.5,30.14,NNE,14,11.0,19.0,81,0.00,,,0.04,12.0,meteobridge,2014-10-21 21:40:00,
2014-10-21 17:45:00,43.7,38.3,30.15,NNW,327,4.0,13.0,81,0.00,,,0.04,12.0,meteobridge,2014-10-21 21:45:00,
2014-10-21 17:50:00,43.7,38.3,30.15,NW,324,8.9,15.0,81,0.00,,,0.04,11.0,meteobridge,2014-10-21 21:50:00,
2014-10-21 17:55:00,43.5,38.1,30.15,NNW,336,4.0,12.0,81,0.00,,,0.04,11.0,meteobridge,2014-10-21 21:55:00,
2014-10-21 18:00:00,43.5,38.1,30.15,NNW,341,6.0,15.0,81,0.00,,,0.04,7.0,meteobridge,2014-10-21 22:00:00,
2014-10-21 18:05:00,43.3,37.9,30.15,North,0,2.9,14.0,81,0.00,,,0.04,7.0,meteobridge,2014-10-21 22:05:00,
2014-10-21 18:10:00,43.3,38.3,30.15,WNW,282,2.0,7.0,82,0.00,,,0.04,9.0,meteobridge,2014-10-21 22:10:00,
2014-10-21 18:15:00,43.3,38.3,30.15,NW,304,6.0,10.0,82,0.00,,,0.04,9.0,meteobridge,2014-10-21 22:15:00,
2014-10-21 18:20:00,43.3,37.9,30.15,West,268,8.9,10.0,81,0.00,,,0.04,7.0,meteobridge,2014-10-21 22:20:00,
2014-10-21 18:25:00,43.3,37.9,30.15,North,9,6.9,12.0,81,0.00,,,0.04,5.0,meteobridge,2014-10-21 22:25:00,
2014-10-21 18:30:00,43.3,38.3,30.15,NW,314,8.9,13.0,82,0.00,,,0.04,0.0,meteobridge,2014-10-21 22:30:00,
2014-10-21 18:35:00,43.2,38.1,30.16,West,275,2.0,11.0,82,0.00,,,0.04,0.0,meteobridge,2014-10-21 22:35:00,
2014-10-21 18:40:00,43.2,38.1,30.16,North,5,4.0,7.0,82,0.00,,,0.04,0.0,meteobridge,2014-10-21 22:40:00,
2014-10-21 18:45:00,43.2,38.1,30.16,North,9,2.0,18.0,82,0.00,,,0.04,0.0,meteobridge,2014-10-21 22:45:00,
2014-10-21 18:50:00,43.2,38.1,30.16,NE,55,10.1,12.0,82,0.00,,,0.04,0.0,meteobridge,2014-10-21 22:50:00,
2014-10-21 18:55:00,43.2,38.1,30.16,NNE,32,4.0,9.0,82,0.00,,,0.04,0.0,meteobridge,2014-10-21 22:55:00,
2014-10-21 19:00:00,43.2,38.1,30.17,NNW,348,6.9,8.0,82,0.00,,,0.04,0.0,meteobridge,2014-10-21 23:00:00,
2014-10-21 19:05:00,43.2,38.1,30.17,NNW,345,2.9,13.0,82,0.00,,,0.04,0.0,meteobridge,2014-10-21 23:05:00,
2014-10-21 19:10:00,43.2,38.1,30.17,WSW,244,6.9,10.0,82,0.00,,,0.04,0.0,meteobridge,2014-10-21 23:10:00,
2014-10-21 19:15:00,43.2,38.1,30.17,NNW,336,2.9,13.0,82,0.00,,,0.04,0.0,meteobridge,2014-10-21 23:15:00,
2014-10-21 19:20:00,43.2,38.1,30.18,North,355,10.1,17.0,82,0.00,,,0.04,0.0,meteobridge,2014-10-21 23:20:00,
2014-10-21 19:25:00,43.2,37.8,30.18,NW,323,2.0,11.0,81,0.00,,,0.04,0.0,meteobridge,2014-10-21 23:25:00,
2014-10-21 19:30:00,43.2,37.8,30.18,NNE,19,4.9,9.0,81,0.00,,,0.04,0.0,meteobridge,2014-10-21 23:30:00,
2014-10-21 19:35:00,43.2,38.1,30.18,North,350,6.9,9.0,82,0.00,,,0.04,0.0,meteobridge,2014-10-21 23:35:00,
2014-10-21 19:40:00,43.2,38.1,30.18,NNW,348,4.0,8.0,82,0.00,,,0.04,0.0,meteobridge,2014-10-21 23:40:00,
2014-10-21 19:45:00,43.0,37.9,30.18,North,5,4.0,11.0,82,0.00,,,0.04,0.0,meteobridge,2014-10-21 23:45:00,
2014-10-21 19:51:00,43.0,37.9,30.18,North,0,2.0,4.0,82,0.00,,,0.04,0.0,meteobridge,2014-10-21 23:51:00,
2014-10-21 19:56:00,43.0,37.9,30.18,North,351,4.0,9.0,82,0.00,,,0.04,0.0,meteobridge,2014-10-21 23:56:00,
2014-10-21 20:01:00,43.0,37.6,30.18,WNW,302,10.1,20.0,81,0.00,,,0.00,0.0,meteobridge,2014-10-22 00:01:00,
2014-10-21 20:06:00,43.0,37.6,30.19,NNW,334,2.0,10.0,81,0.00,,,0.00,0.0,meteobridge,2014-10-22 00:06:00,
2014-10-21 20:11:00,43.0,37.6,30.19,NNW,327,4.9,10.0,81,0.00,,,0.00,0.0,meteobridge,2014-10-22 00:11:00,
2014-10-21 20:16:00,43.0,37.6,30.19,NNE,15,2.9,7.0,81,0.00,,,0.00,0.0,meteobridge,2014-10-22 00:16:00,
2014-10-21 20:21:00,43.0,37.6,30.19,NNE,18,4.0,9.0,81,0.00,,,0.00,0.0,meteobridge,2014-10-22 00:21:00,
2014-10-21 20:26:00,43.0,37.6,30.19,NW,306,6.0,8.0,81,0.00,,,0.00,0.0,meteobridge,2014-10-22 00:26:00,
2014-10-21 20:31:00,43.0,37.6,30.19,NNW,330,0.0,8.0,81,0.00,,,0.00,0.0,meteobridge,2014-10-22 00:31:00,
2014-10-21 20:36:00,43.0,37.6,30.19,North,5,10.1,10.1,81,0.00,,,0.00,0.0,meteobridge,2014-10-22 00:36:00,
2014-10-21 20:41:00,43.0,37.2,30.19,North,0,6.0,10.0,80,0.00,,,0.00,0.0,meteobridge,2014-10-22 00:41:00,
2014-10-21 20:46:00,43.0,37.2,30.20,NNE,23,2.0,7.0,80,0.00,,,0.00,0.0,meteobridge,2014-10-22 00:46:00,
2014-10-21 20:51:00,43.0,37.2,30.20,NNW,330,6.0,10.0,80,0.00,,,0.00,0.0,meteobridge,2014-10-22 00:51:00,
2014-10-21 20:56:00,43.0,37.2,30.20,North,355,2.9,6.0,80,0.00,,,0.00,0.0,meteobridge,2014-10-22 00:56:00,
2014-10-21 21:01:00,43.0,37.2,30.20,NNW,347,4.0,7.0,80,0.00,,,0.00,0.0,meteobridge,2014-10-22 01:01:00,
2014-10-21 21:06:00,43.0,37.6,30.20,NNW,339,6.0,8.0,81,0.00,,,0.00,0.0,meteobridge,2014-10-22 01:06:00,
2014-10-21 21:11:00,43.0,37.2,30.21,NNW,336,0.0,6.0,80,0.00,,,0.00,0.0,meteobridge,2014-10-22 01:11:00,
2014-10-21 21:16:00,43.0,37.2,30.21,NW,319,6.9,8.0,80,0.00,,,0.00,0.0,meteobridge,2014-10-22 01:16:00,
2014-10-21 21:21:00,43.0,37.2,30.21,NNE,22,2.9,8.0,80,0.00,,,0.00,0.0,meteobridge,2014-10-22 01:21:00,
2014-10-21 21:26:00,43.0,37.2,30.21,NE,39,6.0,8.0,80,0.00,,,0.00,0.0,meteobridge,2014-10-22 01:26:00,
2014-10-21 21:31:00,43.0,37.2,30.21,North,9,4.0,6.0,80,0.00,,,0.00,0.0,meteobridge,2014-10-22 01:31:00,
2014-10-21 21:37:00,43.0,37.2,30.22,NW,317,2.9,9.0,80,0.00,,,0.00,0.0,meteobridge,2014-10-22 01:37:00,
2014-10-21 21:42:00,43.0,37.2,30.22,NNW,338,4.9,8.0,80,0.00,,,0.00,0.0,meteobridge,2014-10-22 01:42:00,
2014-10-21 21:47:00,43.0,37.2,30.22,North,5,4.0,10.0,80,0.00,,,0.00,0.0,meteobridge,2014-10-22 01:47:00,
2014-10-21 21:52:00,43.0,37.2,30.22,North,5,2.9,6.0,80,0.00,,,0.00,0.0,meteobridge,2014-10-22 01:52:00,
2014-10-21 21:57:00,43.0,37.2,30.22,North,0,8.1,10.0,80,0.00,,,0.00,0.0,meteobridge,2014-10-22 01:57:00,
2014-10-21 22:02:00,43.0,37.2,30.23,NNW,346,4.0,8.0,80,0.00,,,0.00,0.0,meteobridge,2014-10-22 02:02:00,
2014-10-21 22:07:00,43.0,37.2,30.23,NNE,18,6.0,10.0,80,0.00,,,0.00,0.0,meteobridge,2014-10-22 02:07:00,
2014-10-21 22:12:00,43.0,37.2,30.23,North,9,2.0,6.0,80,0.00,,,0.00,0.0,meteobridge,2014-10-22 02:12:00,
2014-10-21 22:17:00,43.0,37.2,30.23,North,355,2.9,7.0,80,0.00,,,0.00,0.0,meteobridge,2014-10-22 02:17:00,
2014-10-21 22:22:00,42.8,37.0,30.23,NNE,18,4.9,8.0,80,0.00,,,0.00,0.0,meteobridge,2014-10-22 02:22:00,
2014-10-21 22:27:00,42.8,37.0,30.23,NNW,337,4.9,8.0,80,0.00,,,0.00,0.0,meteobridge,2014-10-22 02:27:00,
2014-10-21 22:32:00,42.8,37.0,30.23,NNW,345,4.0,9.0,80,0.00,,,0.00,0.0,meteobridge,2014-10-22 02:32:00,
2014-10-21 22:37:00,42.8,37.0,30.23,North,11,4.0,7.0,80,0.00,,,0.00,0.0,meteobridge,2014-10-22 02:37:00,